Flight Track Log - Related Links

Times and Time Zones

All times are in EDT time to prevent confusion due to time zone crossing. See the FLG3388 flight status page for this flight to view local times or setup timezone preferences in your user account.

Time Position Orientation Groundspeed Altitude Reporting Facility
EDT Latitude Longitude Course Direction KTS MPH feet Rate Location/Type
Wed 10:19:37 AM 44.9000 -93.2667 255° West 179 206 2,000  Level Minneapolis TRACON
Wed 10:20:12 AM 44.8950 -93.2928 255° West 166 191 3,000 1,485 Climbing Minneapolis Center
Wed 10:21:14 AM 44.8853 -93.3789 261° West 226 260 4,400 1,752 Climbing Minneapolis Center
Wed 10:22:29 AM 44.8128 -93.4469 214° Southwest 273 314 7,000 2,295 Climbing Minneapolis Center
Wed 10:23:43 AM 44.7281 -93.5014 205° Southwest 282 325 10,100 2,029 Climbing Minneapolis Center
Wed 10:24:45 AM 44.6325 -93.5558 202° Southwest 333 383 11,600 1,694 Climbing Minneapolis Center
Wed 10:25:47 AM 44.5453 -93.6056 202° Southwest 341 392 13,600 1,839 Climbing Minneapolis Center
Wed 10:26:49 AM 44.4539 -93.6589 203° Southwest 355 409 15,400 1,935 Climbing Minneapolis Center
Wed 10:27:51 AM 44.3392 -93.7231 202° Southwest 372 428 17,600 1,935 Climbing Minneapolis Center
Wed 10:28:53 AM 44.2436 -93.7775 202° Southwest 372 428 19,400 1,645 Climbing Minneapolis Center
Wed 10:29:55 AM 44.1458 -93.8447 206° Southwest 388 447 21,000 1,440 Climbing Minneapolis Center
Wed 10:30:58 AM 44.0503 -93.9228 210° Southwest 396 456 22,400 1,344 Climbing Minneapolis Center
Wed 10:32:00 AM 43.9525 -94.0006 210° Southwest 403 464 23,800 1,355 Climbing Minneapolis Center
Wed 10:33:02 AM 43.8322 -94.0956 210° Southwest 412 474 25,200 1,258 Climbing Minneapolis Center
Wed 10:34:04 AM 43.7289 -94.1769 210° Southwest 421 484 26,400 1,065 Climbing Minneapolis Center
Wed 10:35:06 AM 43.6289 -94.2556 210° Southwest 431 496 27,400 838 Climbing Minneapolis Center
Wed 10:36:20 AM 43.5211 -94.3400 210° Southwest 441 507 28,300 1,368 Climbing Minneapolis Center
Wed 10:37:22 AM 43.3675 -94.4592 209° Southwest 451 519 30,500 1,645 Climbing Minneapolis Center
Wed 10:38:24 AM 43.2594 -94.5381 208° Southwest 442 509 31,700 1,065 Climbing Minneapolis Center
Wed 10:39:26 AM 43.1447 -94.6036 203° Southwest 445 512 32,700 912 Climbing Minneapolis Center
Wed 10:40:29 AM 43.0322 -94.6694 203° Southwest 442 509 33,600 960 Climbing Minneapolis Center
Wed 10:41:31 AM 42.9158 -94.7392 204° Southwest 452 520 34,700 968 Climbing Minneapolis Center
Wed 10:42:33 AM 42.8019 -94.8064 203° Southwest 448 516 35,600 629 Climbing Minneapolis Center
Wed 10:43:35 AM 42.6831 -94.8756 203° Southwest 449 517 36,000 194 Climbing Minneapolis Center
Wed 10:44:37 AM 42.5639 -94.9467 204° Southwest 461 531 36,000  Level Minneapolis Center
Wed 10:45:39 AM 42.4194 -95.0292 203° Southwest 469 540 36,000  Level Minneapolis Center
Wed 10:46:41 AM 42.2983 -95.0994 203° Southwest 470 541 36,000  Level Minneapolis Center
Wed 10:47:43 AM 42.1772 -95.1650 202° Southwest 469 540 36,000  Level Minneapolis Center
Wed 10:48:45 AM 42.0564 -95.2369 204° Southwest 472 543 36,000  Level Minneapolis Center
Wed 10:49:47 AM 41.9356 -95.3042 202° Southwest 470 541 36,000  Level Minneapolis Center
Wed 10:50:49 AM 41.8147 -95.3733 203° Southwest 471 542 36,000  Level Minneapolis Center
Wed 10:51:51 AM 41.7189 -95.4278 203° Southwest 469 540 36,000  Level Minneapolis Center
Wed 10:52:53 AM 41.5481 -95.5233 203° Southwest 472 543 36,000  Level Minneapolis Center
Wed 10:53:55 AM 41.4500 -95.5786 203° Southwest 474 545 36,000  Level Minneapolis Center
Wed 10:54:57 AM 41.3114 -95.6561 203° Southwest 474 545 36,000  Level Minneapolis Center
Wed 10:56:00 AM 41.1914 -95.7239 203° Southwest 471 542 36,000  Level Minneapolis Center
Wed 10:57:02 AM 41.0558 -95.7978 202° Southwest 473 544 36,000  Level Minneapolis Center
Wed 10:58:04 AM 40.9339 -95.8681 204° Southwest 475 547 36,000  Level Minneapolis Center
Wed 10:59:06 AM 40.8131 -95.9367 203° Southwest 471 542 36,000  Level Minneapolis Center
Wed 11:00:20 AM 40.6917 -96.0056 203° Southwest 472 543 36,000  Level Minneapolis Center
Wed 11:01:22 AM 40.5469 -96.0858 203° Southwest 470 541 36,000  Level Minneapolis Center
Wed 11:02:24 AM 40.4025 -96.1669 203° Southwest 470 541 36,000  Level Minneapolis Center
Wed 11:03:26 AM 40.2806 -96.2342 203° Southwest 472 543 36,000  Level Minneapolis Center
Wed 11:04:29 AM 40.1594 -96.3011 203° Southwest 472 543 36,000  Level Minneapolis Center
Wed 11:05:31 AM 40.0358 -96.3553 199° South 470 541 36,000  Level Minneapolis Center
Wed 11:06:32 AM 39.9314 -96.3681 185° South 471 542 36,000  Level Minneapolis Center
Wed 11:07:34 AM 39.7747 -96.3922 187° South 472 543 36,000  Level Minneapolis Center
Wed 11:08:37 AM 39.6192 -96.4158 187° South 470 541 36,000  Level Minneapolis Center
Wed 11:09:42 AM 39.4881 -96.4356 187° South 471 542 36,000  Level Kansas City Center
Wed 11:10:42 AM 39.3550 -96.4561 187° South 474 545 36,000  Level Kansas City Center
Wed 11:11:43 AM 39.2108 -96.4750 186° South 467 537 36,000  Level Kansas City Center
Wed 11:12:47 AM 39.0844 -96.4944 187° South 477 549 36,000  Level Kansas City Center
Wed 11:13:47 AM 38.9642 -96.5117 186° South 475 547 36,000  Level Kansas City Center
Wed 11:14:51 AM 38.8053 -96.4997 177° South 474 545 36,000  Level Kansas City Center
Wed 11:15:51 AM 38.6631 -96.4914 177° South 478 550 36,000  Level Kansas City Center
Wed 11:16:55 AM 38.5378 -96.4842 177° South 473 544 36,000  Level Kansas City Center
Wed 11:17:56 AM 38.4078 -96.4875 181° South 471 542 36,000  Level Kansas City Center
Wed 11:19:00 AM 38.2764 -96.5106 188° South 473 544 36,000  Level Kansas City Center
Wed 11:20:01 AM 38.1461 -96.5317 187° South 470 541 36,000  Level Kansas City Center
Wed 11:21:02 AM 38.0161 -96.5536 188° South 469 540 36,000  Level Kansas City Center
Wed 11:22:06 AM 37.8597 -96.5814 188° South 470 541 36,000  Level Kansas City Center
Wed 11:23:06 AM 37.7303 -96.6022 187° South 467 537 36,000  Level Kansas City Center
Wed 11:24:10 AM 37.6017 -96.6244 188° South 464 534 36,000  Level Kansas City Center
Wed 11:25:10 AM 37.4736 -96.6456 187° South 462 532 36,000  Level Kansas City Center
Wed 11:26:14 AM 37.3419 -96.6681 188° South 468 539 36,000  Level Kansas City Center
Wed 11:27:15 AM 37.2103 -96.6900 188° South 473 544 36,000  Level Kansas City Center
Wed 11:28:16 AM 37.0650 -96.7150 188° South 475 547 36,000  Level Kansas City Center
Wed 11:29:19 AM 36.9333 -96.7367 187° South 476 548 36,000  Level Kansas City Center
Wed 11:30:20 AM 36.8072 -96.7567 187° South 467 537 36,000 432 Level Kansas City Center
Wed 11:31:24 AM 36.6508 -96.7825 188° South 469 540 36,900 672 Climbing Kansas City Center
Wed 11:32:25 AM 36.5258 -96.8017 187° South 474 545 37,400 484 Climbing Kansas City Center
Wed 11:33:28 AM 36.3939 -96.8239 188° South 477 549 37,900 288 Climbing Kansas City Center
Wed 11:34:30 AM 36.2614 -96.8469 188° South 479 551 38,000 48 Climbing Kansas City Center
Wed 11:35:32 AM 36.1281 -96.8672 187° South 481 554 38,000  Level Kansas City Center
Wed 11:36:33 AM 35.9694 -96.8919 187° South 479 551 38,000  Level Kansas City Center
Wed 11:37:36 AM 35.8378 -96.9133 188° South 477 549 38,000  Level Kansas City Center
Wed 11:38:39 AM 35.7064 -96.9331 187° South 475 547 38,000  Level Kansas City Center
Wed 11:39:39 AM 35.5758 -96.9528 187° South 472 543 38,000  Level Kansas City Center
Wed 11:40:30 AM 35.4639 -96.9675 186° South 484 557 38,000  Level Fort Worth Center
Wed 11:41:30 AM 35.3325 -96.9911 188° South 484 557 38,000  Level Fort Worth Center
Wed 11:42:30 AM 35.2033 -97.0122 188° South 484 557 38,000  Level Fort Worth Center
Wed 11:43:30 AM 35.0783 -97.0331 188° South 479 551 38,000  Level Fort Worth Center
Wed 11:44:30 AM 34.9511 -97.0539 188° South 474 545 38,000  Level Fort Worth Center
Wed 11:45:30 AM 34.8239 -97.0747 188° South 467 537 38,000  Level Fort Worth Center
Wed 11:46:30 AM 34.6967 -97.0953 188° South 467 537 38,000  Level Fort Worth Center
Wed 11:47:30 AM 34.5714 -97.1133 187° South 461 531 38,000  Level Fort Worth Center
Wed 11:48:30 AM 34.4442 -97.1339 188° South 467 537 38,000  Level Fort Worth Center
Wed 11:49:30 AM 34.3150 -97.1519 187° South 467 537 38,000  Level Fort Worth Center
Wed 11:50:30 AM 34.1856 -97.1700 187° South 467 537 38,000  Level Fort Worth Center
Wed 11:51:30 AM 34.0500 -97.1703 180° South 456 525 38,000  Level Fort Worth Center
Wed 11:52:30 AM 33.9206 -97.1681 179° South 456 525 38,000  Level Fort Worth Center
Wed 11:53:30 AM 33.7933 -97.1736 182° South 456 525 38,000  Level Fort Worth Center
Wed 11:54:30 AM 33.6661 -97.1739 180° South 456 525 38,000  Level Fort Worth Center
Wed 11:55:30 AM 33.5386 -97.1742 180° South 456 525 38,000  Level Fort Worth Center
Wed 11:56:30 AM 33.4133 -97.1744 180° South 456 525 38,000  Level Fort Worth Center
Wed 11:57:30 AM 33.2883 -97.1775 181° South 456 525 38,000  Level Fort Worth Center
Wed 11:58:30 AM 33.1672 -97.1778 180° South 456 525 38,000  Level Fort Worth Center
Wed 11:59:30 AM 33.0669 -97.1778 180° South 449 517 38,000  Level Fort Worth Center
Wed 12:00:30 PM 32.9250 -97.1783 180° South 463 533 38,000  Level Fort Worth Center
Wed 12:01:30 PM 32.7997 -97.1836 182° South 457 526 38,000  Level Fort Worth Center
Wed 12:02:30 PM 32.6744 -97.1961 185° South 457 526 38,000  Level Fort Worth Center
Wed 12:03:30 PM 32.5556 -97.2064 184° South 445 512 38,000  Level Fort Worth Center
Wed 12:04:30 PM 32.4325 -97.2142 183° South 440 506 38,000  Level Fort Worth Center
Wed 12:05:30 PM 32.3114 -97.2217 183° South 440 506 38,000  Level Fort Worth Center
Wed 12:06:30 PM 32.1903 -97.2317 184° South 440 506 38,000  Level Fort Worth Center
Wed 12:07:30 PM 32.0692 -97.2417 184° South 440 506 38,000  Level Fort Worth Center
Wed 12:08:30 PM 31.9356 -97.2494 183° South 440 506 38,000  Level Fort Worth Center
Wed 12:09:30 PM 31.8269 -97.2594 184° South 435 501 38,000 -100 Level Fort Worth Center
Wed 12:10:30 PM 31.7017 -97.2669 183° South 447 514 37,800 -362 Descending Fort Worth Center
Wed 12:11:59 PM 31.5464 -97.1864 156° South 437 503 37,100 -477 Descending Houston Center
Wed 12:13:01 PM 31.4933 -97.0544 115° Southeast 438 504 36,600 -484 Descending Houston Center
Wed 12:14:03 PM 31.4083 -96.9442 132° Southeast 459 528 36,100 -290 Descending Houston Center
Wed 12:15:05 PM 31.2886 -96.8975 162° South 466 536 36,000 -48 Descending Houston Center
Wed 12:16:07 PM 31.1683 -96.9283 192° South 457 526 36,000 -774 Level Houston Center
Wed 12:17:09 PM 31.0511 -97.0156 213° Southwest 426 490 34,400 -1,548 Descending Houston Center
Wed 12:18:11 PM 30.9494 -97.0917 213° Southwest 430 495 32,800 -1,500 Descending Houston Center
Wed 12:19:13 PM 30.8408 -97.1725 213° Southwest 444 511 31,300 -1,500 Descending Houston Center
Wed 12:20:15 PM 30.7344 -97.2567 214° Southwest 452 520 29,700 -1,694 Descending Houston Center
Wed 12:21:17 PM 30.6319 -97.3353 213° Southwest 440 506 27,800 -1,984 Descending Houston Center
Wed 12:22:19 PM 30.5253 -97.4192 214° Southwest 451 519 25,600 -2,129 Descending Houston Center
Wed 12:23:21 PM 30.4181 -97.4992 213° Southwest 455 524 23,400 -2,112 Descending Houston Center
Wed 12:24:24 PM 30.3167 -97.5739 212° Southwest 433 498 21,200 -2,112 Descending Houston Center
Wed 12:25:26 PM 30.2183 -97.6419 211° Southwest 411 473 19,000 -2,032 Descending Houston Center
Wed 12:26:28 PM 30.1225 -97.7072 211° Southwest 397 457 17,000 -1,984 Descending Houston Center
Wed 12:27:30 PM 30.0122 -97.7833 211° Southwest 387 445 14,900 -1,887 Descending Houston Center
Wed 12:28:32 PM 29.9222 -97.8461 211° Southwest 380 437 13,100 -871 Descending Houston Center
Wed 12:29:34 PM 29.8608 -97.9456 235° Southwest 360 414 13,100 -677 Level Houston Center
Wed 12:30:36 PM 29.8167 -98.0406 242° Southwest 333 383 11,700 -1,452 Descending Houston Center
Wed 12:31:38 PM 29.7817 -98.1361 247° West 302 348 10,100 -1,645 Descending Houston Center
Wed 12:32:40 PM 29.7464 -98.2194 244° Southwest 291 335 8,300 -1,781 Descending Houston Center
Wed 12:33:46 PM 29.7081 -98.3117 244° Southwest 279 321 6,300 -1,065 Descending Houston Center
Wed 12:34:44 PM 29.6756 -98.3869 244° Southwest 283 326 6,100 -310 Descending Houston Center
Wed 12:35:42 PM 29.6514 -98.4700 252° West 281 323 5,700 -1,008 Descending Houston Center
Wed 12:36:43 PM 29.6978 -98.5414 307° West 282 325 4,100 -898 Descending Houston Center
Wed 12:37:49 PM 29.6669 -98.5967 237° Southwest 227 261 3,800 -609 Descending Houston Center
Wed 12:38:51 PM 29.6092 -98.5711 159° South 216 249 2,800 -923 Descending Houston Center
Wed 12:39:46 PM 29.5797 -98.5364 134° Southeast 156 180 2,000 -776 Descending Houston Center
Wed 12:40:47 PM 29.5533 -98.5011 131° Southeast 135 155 1,300 -504 Descending Houston Center
Wed 12:41:57 PM 29.5281 -98.4644 128° Southeast 142 163 900 -343 Descending Houston Center
Wed 12:43:00 PM 29.5333 -98.4667 16° North  Level FlightAware Approximate
Wed 12:50:00 PM 29.5340 -98.4691 16° North  Level Estimated

Login

Don't have an account? Register now (free) for customized features, flight alerts, and more!